createdAt,value
2023-01-03T00:01:42.502Z,79.93
2023-01-03T00:04:11.621Z,81.83
2023-01-03T00:06:42.354Z,84.20
2023-01-03T00:09:12.750Z,87.80
2023-01-03T00:11:59.743Z,89.97
2023-01-03T00:14:30.619Z,99.33
2023-01-03T00:17:02.506Z,105.67
2023-01-03T00:19:34.846Z,105.00
2023-01-03T00:22:03.867Z,106.00
2023-01-03T00:24:32.600Z,114.57
2023-01-03T00:27:01.325Z,115.03
2023-01-03T00:29:30.003Z,118.03
2023-01-03T00:32:00.111Z,117.80
2023-01-03T00:34:29.043Z,116.03
2023-01-03T00:36:57.844Z,123.77
2023-01-03T00:39:26.698Z,116.47
2023-01-03T00:41:55.687Z,108.07
2023-01-03T00:44:24.355Z,105.27
2023-01-03T00:46:52.937Z,120.60
2023-01-03T00:49:23.609Z,103.90
2023-01-03T00:51:53.900Z,107.27
2023-01-03T00:54:23.182Z,100.60
2023-01-03T00:56:53.049Z,96.13
2023-01-03T00:59:22.920Z,97.53
2023-01-03T01:01:53.094Z,104.37
2023-01-03T01:04:25.599Z,104.93
2023-01-03T01:06:56.995Z,109.17
2023-01-03T01:09:28.322Z,109.87
2023-01-03T01:11:57.168Z,112.80
2023-01-03T01:14:27.680Z,113.53
2023-01-03T01:16:59.102Z,112.50
2023-01-03T01:19:30.384Z,107.53
2023-01-03T01:21:59.153Z,102.80
2023-01-03T01:24:27.761Z,101.90
2023-01-03T01:26:56.763Z,100.13
2023-01-03T01:29:25.889Z,92.47
2023-01-03T01:31:54.705Z,85.53
2023-01-03T01:34:23.337Z,90.43
2023-01-03T01:36:54.163Z,90.33
2023-01-03T01:39:25.232Z,84.77
2023-01-03T01:42:20.764Z,82.90
2023-01-03T01:44:56.405Z,85.37
2023-01-03T01:47:37.746Z,80.90
2023-01-03T01:50:16.819Z,86.20
2023-01-03T01:52:52.174Z,83.07
2023-01-03T01:55:24.046Z,81.37
2023-01-03T01:57:53.576Z,84.47
2023-01-03T02:00:23.079Z,80.00
2023-01-03T02:02:54.208Z,81.00
2023-01-03T02:05:24.607Z,85.80
2023-01-03T02:07:55.506Z,83.00
2023-01-03T02:10:30.964Z,83.00
2023-01-03T02:13:06.726Z,83.67
2023-01-03T02:15:57.966Z,83.20
2023-01-03T02:18:39.475Z,89.03
2023-01-03T02:21:41.960Z,82.80
2023-01-03T02:24:39.904Z,82.27
2023-01-03T02:27:25.401Z,84.73
2023-01-03T02:30:25.114Z,91.40
2023-01-03T02:33:00.363Z,84.63
2023-01-03T02:35:37.562Z,83.63
2023-01-03T02:38:13.146Z,101.63
2023-01-03T02:40:46.381Z,94.13
2023-01-03T02:43:19.630Z,97.23
2023-01-03T02:46:02.727Z,99.97
2023-01-03T02:48:42.997Z,96.00
2023-01-03T02:51:16.950Z,87.00
2023-01-03T02:53:48.839Z,88.83
2023-01-03T02:56:22.900Z,91.10
2023-01-03T02:58:57.422Z,84.53
2023-01-03T03:01:29.542Z,79.77
2023-01-03T03:03:59.042Z,70.57
2023-01-03T03:06:34.290Z,73.17
2023-01-03T03:09:02.903Z,70.17
2023-01-03T03:11:52.234Z,65.53
2023-01-03T03:14:24.972Z,61.50
2023-01-03T03:17:00.283Z,66.07
2023-01-03T03:19:48.171Z,69.57
2023-01-03T03:22:43.835Z,65.43
2023-01-03T03:25:16.543Z,61.60
2023-01-03T03:28:06.405Z,68.30
2023-01-03T03:30:39.565Z,67.47
2023-01-03T03:33:13.352Z,67.37
2023-01-03T03:35:46.729Z,65.47
2023-01-03T03:38:19.222Z,67.50
2023-01-03T03:41:18.535Z,64.07
2023-01-03T03:44:22.461Z,62.50
2023-01-03T03:46:56.607Z,57.17
2023-01-03T03:49:41.309Z,58.10
2023-01-03T03:52:15.415Z,55.37
2023-01-03T03:54:49.839Z,57.10
2023-01-03T03:57:25.296Z,50.37
2023-01-03T03:59:57.742Z,59.07
2023-01-03T04:02:28.873Z,55.87
2023-01-03T04:05:01.904Z,55.77
2023-01-03T04:07:30.767Z,55.33
2023-01-03T04:09:59.360Z,54.10
2023-01-03T04:12:28.126Z,54.30
2023-01-03T04:14:56.720Z,51.27
2023-01-03T04:17:25.283Z,53.90
2023-01-03T04:19:53.845Z,59.40
2023-01-03T04:22:24.061Z,53.60
2023-01-03T04:24:52.574Z,52.70
2023-01-03T04:27:21.152Z,59.93
2023-01-03T04:29:50.674Z,54.63
2023-01-03T04:32:19.244Z,57.10
2023-01-03T04:34:47.810Z,58.70
2023-01-03T04:37:16.468Z,55.27
2023-01-03T04:39:46.466Z,55.13
2023-01-03T04:42:32.285Z,55.47
2023-01-03T04:45:00.825Z,50.63
2023-01-03T04:47:29.436Z,48.20
2023-01-03T04:49:57.976Z,47.93
2023-01-03T04:52:26.597Z,49.20
2023-01-03T04:54:56.614Z,53.50
2023-01-03T04:57:25.235Z,52.40
2023-01-03T04:59:53.815Z,51.70
2023-01-03T05:02:22.457Z,47.40
2023-01-03T05:04:51.056Z,49.50
2023-01-03T05:07:19.614Z,49.07
2023-01-03T05:09:48.273Z,49.60
2023-01-03T05:12:18.212Z,50.40
2023-01-03T05:14:48.082Z,48.13
2023-01-03T05:17:16.830Z,48.10
2023-01-03T05:19:59.123Z,48.10
2023-01-03T05:22:45.093Z,47.70
2023-01-03T05:25:31.378Z,50.10
2023-01-03T05:28:02.663Z,51.03
2023-01-03T05:30:31.299Z,52.33
2023-01-03T05:32:59.908Z,51.73
2023-01-03T05:35:28.451Z,56.00
2023-01-03T05:37:56.978Z,55.13
2023-01-03T05:40:25.681Z,55.93
2023-01-03T05:42:54.325Z,51.67
2023-01-03T05:45:26.027Z,51.03
2023-01-03T05:47:54.699Z,53.80
2023-01-03T05:50:23.296Z,51.13
2023-01-03T05:52:51.948Z,53.53
2023-01-03T05:55:20.659Z,51.93
2023-01-03T05:57:49.288Z,55.03
2023-01-03T06:00:18.140Z,54.53
2023-01-03T06:02:48.356Z,51.87
2023-01-03T06:05:17.163Z,53.23
2023-01-03T06:07:45.648Z,51.67
2023-01-03T06:10:14.235Z,49.10
2023-01-03T06:12:42.861Z,50.47
2023-01-03T06:15:12.065Z,48.27
2023-01-03T06:18:00.216Z,48.83
2023-01-03T06:20:31.138Z,53.33
2023-01-03T06:22:59.945Z,48.93
2023-01-03T06:25:28.583Z,48.33
2023-01-03T06:27:57.267Z,53.07
2023-01-03T06:30:25.962Z,50.47
2023-01-03T06:32:54.619Z,52.07
2023-01-03T06:35:23.136Z,49.67
2023-01-03T06:37:53.120Z,51.87
2023-01-03T06:40:21.629Z,48.97
2023-01-03T06:42:50.247Z,50.47
2023-01-03T06:45:36.668Z,53.50
2023-01-03T06:48:23.526Z,52.23
2023-01-03T06:51:10.383Z,49.90
2023-01-03T06:53:43.868Z,50.70
2023-01-03T06:56:12.863Z,50.33
2023-01-03T06:58:42.475Z,51.03
2023-01-03T07:01:11.269Z,49.37
2023-01-03T07:03:39.906Z,47.93
2023-01-03T07:06:08.630Z,49.07
2023-01-03T07:08:40.160Z,46.07
2023-01-03T07:11:12.639Z,45.10
2023-01-03T07:13:58.668Z,45.80
2023-01-03T07:16:29.174Z,48.20
2023-01-03T07:18:58.588Z,46.60
2023-01-03T07:21:28.912Z,51.47
2023-01-03T07:23:58.782Z,48.30
2023-01-03T07:26:30.586Z,49.27
2023-01-03T07:28:59.333Z,48.87
2023-01-03T07:31:28.343Z,46.80
2023-01-03T07:33:57.015Z,47.20
2023-01-03T07:36:25.582Z,52.67
2023-01-03T07:38:56.068Z,47.83
2023-01-03T07:41:45.054Z,45.33
2023-01-03T07:44:14.144Z,47.70
2023-01-03T07:46:42.824Z,44.03
2023-01-03T07:49:12.358Z,46.23
2023-01-03T07:51:41.545Z,43.63
2023-01-03T07:54:10.093Z,43.03
2023-01-03T07:56:38.657Z,43.50
2023-01-03T07:59:07.245Z,47.67
2023-01-03T08:01:37.283Z,48.10
2023-01-03T08:04:05.981Z,46.03
2023-01-03T08:06:34.878Z,46.33
2023-01-03T08:09:20.836Z,43.33
2023-01-03T08:12:06.706Z,40.80
2023-01-03T08:14:35.299Z,42.30
2023-01-03T08:17:05.263Z,44.00
2023-01-03T08:19:33.887Z,44.90
2023-01-03T08:22:02.462Z,42.20
2023-01-03T08:24:31.053Z,47.77
2023-01-03T08:26:59.683Z,39.17
2023-01-03T08:29:28.261Z,38.73
2023-01-03T08:31:58.318Z,37.87
2023-01-03T08:34:33.160Z,37.07
2023-01-03T08:37:05.161Z,45.27
2023-01-03T08:39:41.518Z,41.70
2023-01-03T08:42:11.624Z,37.70
2023-01-03T08:44:40.812Z,36.77
2023-01-03T08:47:10.964Z,35.70
2023-01-03T08:49:41.436Z,39.07
2023-01-03T08:52:10.134Z,33.77
2023-01-03T08:54:39.337Z,27.57
2023-01-03T08:57:08.009Z,21.83
2023-01-03T08:59:36.597Z,20.93
2023-01-03T09:02:05.323Z,22.10
2023-01-03T09:04:34.083Z,21.57
2023-01-03T09:07:04.152Z,24.17
2023-01-03T09:09:33.047Z,27.27
2023-01-03T09:12:01.636Z,25.40
2023-01-03T09:14:31.748Z,29.83
2023-01-03T09:17:00.433Z,30.67
2023-01-03T09:19:29.061Z,34.33
2023-01-03T09:21:57.651Z,37.57
2023-01-03T09:24:27.641Z,36.87
2023-01-03T09:26:56.319Z,35.23
2023-01-03T09:29:24.972Z,31.40
2023-01-03T09:31:53.579Z,31.73
2023-01-03T09:34:22.174Z,28.10
2023-01-03T09:36:50.690Z,27.87
2023-01-03T09:39:19.298Z,29.73
2023-01-03T09:42:10.495Z,25.50
2023-01-03T09:44:40.722Z,27.60
2023-01-03T09:47:17.949Z,26.10
2023-01-03T09:50:11.649Z,25.70
2023-01-03T09:52:53.443Z,30.30
2023-01-03T09:55:49.445Z,28.17
2023-01-03T09:58:42.123Z,25.13
2023-01-03T10:01:55.435Z,27.10
2023-01-03T10:04:51.326Z,27.63
2023-01-03T10:07:34.636Z,27.80
2023-01-03T10:10:14.406Z,28.07
2023-01-03T10:12:59.108Z,30.57
2023-01-03T10:15:37.712Z,31.73
2023-01-03T10:18:18.953Z,31.43
2023-01-03T10:20:51.554Z,32.30
2023-01-03T10:23:20.893Z,30.43
2023-01-03T10:25:51.174Z,31.93
2023-01-03T10:28:22.601Z,32.47
2023-01-03T10:31:20.204Z,31.57
2023-01-03T10:33:50.332Z,34.73
2023-01-03T10:36:20.598Z,30.37
2023-01-03T10:38:53.268Z,32.13
2023-01-03T10:41:31.190Z,35.07
2023-01-03T10:44:01.684Z,31.10
2023-01-03T10:46:32.261Z,31.37
2023-01-03T10:49:31.382Z,38.50
2023-01-03T10:52:04.121Z,35.07
2023-01-03T10:54:47.884Z,38.67
2023-01-03T10:57:43.674Z,29.90
2023-01-03T11:00:34.320Z,30.37
2023-01-03T11:03:17.579Z,30.17
2023-01-03T11:05:48.798Z,28.57
2023-01-03T11:08:24.028Z,28.37
2023-01-03T11:11:04.104Z,30.53
2023-01-03T11:13:38.370Z,28.37
2023-01-03T11:16:15.991Z,26.63
2023-01-03T11:19:00.558Z,26.57
2023-01-03T11:21:36.824Z,26.33
2023-01-03T11:24:15.707Z,26.77
2023-01-03T11:26:51.892Z,25.27
2023-01-03T11:29:44.261Z,25.23
2023-01-03T11:32:25.484Z,28.63
2023-01-03T11:35:26.738Z,28.07
2023-01-03T11:38:07.595Z,25.70
2023-01-03T11:40:45.478Z,26.33
2023-01-03T11:43:35.728Z,28.90
2023-01-03T11:46:20.535Z,26.50
2023-01-03T11:49:00.603Z,24.27
2023-01-03T11:51:40.503Z,24.87
2023-01-03T11:54:18.124Z,24.80
2023-01-03T11:56:48.399Z,24.03
2023-01-03T11:59:45.096Z,25.43
2023-01-03T12:02:52.447Z,26.90
2023-01-03T12:05:42.028Z,25.10
2023-01-03T12:08:36.364Z,24.20
2023-01-03T12:11:14.071Z,25.37
2023-01-03T12:13:48.447Z,25.20
2023-01-03T12:16:25.291Z,28.67
2023-01-03T12:19:00.193Z,30.37
2023-01-03T12:21:36.493Z,28.77
2023-01-03T12:24:15.336Z,31.23
2023-01-03T12:26:49.583Z,29.13
2023-01-03T12:29:22.091Z,30.73
2023-01-03T12:31:55.638Z,28.57
2023-01-03T12:34:29.654Z,30.37
2023-01-03T12:37:10.387Z,29.43
2023-01-03T12:39:49.603Z,32.93
2023-01-03T12:42:27.563Z,30.60
2023-01-03T12:45:03.559Z,30.30
2023-01-03T12:47:36.641Z,29.27
2023-01-03T12:50:11.816Z,30.20
2023-01-03T12:52:42.444Z,28.53
2023-01-03T12:55:22.369Z,29.33
2023-01-03T12:58:02.623Z,29.43
2023-01-03T13:00:58.708Z,30.97
2023-01-03T13:03:32.491Z,30.93
2023-01-03T13:06:04.320Z,32.70
2023-01-03T13:08:41.285Z,30.63
2023-01-03T13:11:20.484Z,32.07
2023-01-03T13:13:55.446Z,30.50
2023-01-03T13:16:45.090Z,32.33
2023-01-03T13:19:50.124Z,31.10
2023-01-03T13:22:38.578Z,30.13
2023-01-03T13:25:29.364Z,30.37
2023-01-03T13:28:00.543Z,30.50
2023-01-03T13:30:30.994Z,30.33
2023-01-03T13:33:21.041Z,31.70
2023-01-03T13:36:04.754Z,32.67
2023-01-03T13:38:35.825Z,33.43
2023-01-03T13:41:18.174Z,31.83
2023-01-03T13:43:51.757Z,30.13
2023-01-03T13:46:25.009Z,32.20
2023-01-03T13:48:59.157Z,30.57
2023-01-03T13:51:36.505Z,30.70
2023-01-03T13:54:24.568Z,29.77
2023-01-03T13:57:03.741Z,30.10
2023-01-03T13:59:42.181Z,29.77
2023-01-03T14:03:03.759Z,30.50
2023-01-03T14:06:08.962Z,30.00
2023-01-03T14:09:16.607Z,30.47
2023-01-03T14:12:00.661Z,30.70
2023-01-03T14:14:31.290Z,30.60
2023-01-03T14:17:03.751Z,29.00
2023-01-03T14:19:35.077Z,30.63
2023-01-03T14:22:27.492Z,32.43
2023-01-03T14:24:57.676Z,30.40
2023-01-03T14:27:29.387Z,31.27
2023-01-03T14:29:58.240Z,30.93
2023-01-03T14:32:34.474Z,30.20
2023-01-03T14:35:04.462Z,34.70
2023-01-03T14:37:35.160Z,36.87
2023-01-03T14:40:06.176Z,37.40
2023-01-03T14:42:34.842Z,30.80
2023-01-03T14:45:05.593Z,32.27
2023-01-03T14:47:39.341Z,34.20
2023-01-03T14:50:12.551Z,45.10
2023-01-03T14:52:43.876Z,42.20
2023-01-03T14:55:18.489Z,36.07
2023-01-03T14:57:49.311Z,34.00
2023-01-03T15:00:25.507Z,32.93
2023-01-03T15:03:00.665Z,32.43
2023-01-03T15:05:31.998Z,33.20
2023-01-03T15:08:10.912Z,34.43
2023-01-03T15:10:46.391Z,33.87
2023-01-03T15:13:20.715Z,35.47
2023-01-03T15:15:55.524Z,34.23
2023-01-03T15:18:28.044Z,36.37
2023-01-03T15:20:58.352Z,34.83
2023-01-03T15:23:39.753Z,36.13
2023-01-03T15:26:22.191Z,35.37
2023-01-03T15:28:53.933Z,36.43
2023-01-03T15:31:34.620Z,38.23
2023-01-03T15:34:13.976Z,37.57
2023-01-03T15:36:47.263Z,36.87
2023-01-03T15:39:19.844Z,36.53
2023-01-03T15:42:42.138Z,40.60
2023-01-03T15:44:55.618Z,38.27
2023-01-03T15:47:30.177Z,36.73
2023-01-03T15:50:04.795Z,37.50
2023-01-03T15:52:33.479Z,37.27
2023-01-03T15:55:02.080Z,34.83
2023-01-03T15:57:31.857Z,46.97
2023-01-03T16:00:04.473Z,39.33
2023-01-03T16:02:33.846Z,36.70
2023-01-03T16:05:03.990Z,37.57
2023-01-03T16:07:32.489Z,36.67
2023-01-03T16:10:01.024Z,35.17
2023-01-03T16:12:34.720Z,36.83
2023-01-03T16:15:04.759Z,39.90
2023-01-03T16:17:33.990Z,39.83
2023-01-03T16:20:04.193Z,43.43
2023-01-03T16:22:34.871Z,44.70
2023-01-03T16:25:04.464Z,46.63
2023-01-03T16:27:33.233Z,45.20
2023-01-03T16:30:02.055Z,47.20
2023-01-03T16:32:31.619Z,44.93
2023-01-03T16:35:02.336Z,47.53
2023-01-03T16:37:32.505Z,48.03
2023-01-03T16:40:01.081Z,52.73
2023-01-03T16:42:29.686Z,71.53
2023-01-03T16:44:58.293Z,53.27
2023-01-03T16:47:30.456Z,49.93
2023-01-03T16:50:01.992Z,50.07
2023-01-03T16:52:35.534Z,49.00
2023-01-03T16:55:08.510Z,53.97
2023-01-03T16:57:37.114Z,51.07
2023-01-03T17:00:15.272Z,62.17
2023-01-03T17:02:44.088Z,59.57
2023-01-03T17:05:12.989Z,50.27
2023-01-03T17:07:44.760Z,49.07
2023-01-03T17:10:25.747Z,48.77
2023-01-03T17:12:56.117Z,52.40
2023-01-03T17:15:24.621Z,52.07
2023-01-03T17:17:53.253Z,49.03
2023-01-03T17:20:23.167Z,45.13
2023-01-03T17:22:56.549Z,49.73
2023-01-03T17:25:25.653Z,48.57
2023-01-03T17:27:56.655Z,53.00
2023-01-03T17:30:27.765Z,52.17
2023-01-03T17:32:56.525Z,54.40
2023-01-03T17:35:25.131Z,50.57
2023-01-03T17:40:45.373Z,49.70
2023-01-03T17:43:22.962Z,48.00
2023-01-03T17:46:13.903Z,46.50
2023-01-03T17:49:02.281Z,45.00
2023-01-03T17:51:30.899Z,49.37
2023-01-03T17:54:00.904Z,46.37
2023-01-03T17:56:30.649Z,49.20
2023-01-03T17:58:59.388Z,50.10
2023-01-03T18:01:28.025Z,45.03
2023-01-03T18:03:56.787Z,44.03
2023-01-03T18:06:27.142Z,44.97
2023-01-03T18:08:57.090Z,47.73
2023-01-03T18:11:28.432Z,50.30
2023-01-03T18:13:56.942Z,48.83
2023-01-03T18:16:25.767Z,49.00
2023-01-03T18:18:54.659Z,54.13
2023-01-03T18:21:24.810Z,50.87
2023-01-03T18:23:57.326Z,52.07
2023-01-03T18:26:31.064Z,52.27
2023-01-03T18:28:59.599Z,48.67
2023-01-03T18:31:28.907Z,56.03
2023-01-03T18:33:58.277Z,54.90
2023-01-03T18:36:28.817Z,70.10
2023-01-03T18:39:01.974Z,67.67
2023-01-03T18:41:34.334Z,60.80
2023-01-03T18:44:02.937Z,59.43
2023-01-03T18:46:31.498Z,57.10
2023-01-03T18:49:00.093Z,54.83
2023-01-03T18:51:30.507Z,58.17
2023-01-03T18:54:00.348Z,55.30
2023-01-03T18:56:35.976Z,59.33
2023-01-03T18:59:07.778Z,57.73
2023-01-03T19:01:36.495Z,56.70
2023-01-03T19:04:05.116Z,61.40
2023-01-03T19:06:34.213Z,63.20
2023-01-03T19:09:05.597Z,62.17
2023-01-03T19:11:37.889Z,62.40
2023-01-03T19:14:09.007Z,58.60
2023-01-03T19:16:39.095Z,65.20
2023-01-03T19:19:08.767Z,63.10
2023-01-03T19:21:38.823Z,67.93
2023-01-03T19:24:13.620Z,62.83
2023-01-03T19:26:46.025Z,65.87
2023-01-03T19:29:21.209Z,61.50
2023-01-03T19:31:51.946Z,62.40
2023-01-03T19:34:22.270Z,65.97
2023-01-03T19:36:51.423Z,63.70
2023-01-03T19:39:25.373Z,59.57
2023-01-03T19:42:14.885Z,65.80
2023-01-03T19:44:44.048Z,65.13
2023-01-03T19:47:14.781Z,69.47
2023-01-03T19:49:43.801Z,65.20
2023-01-03T19:52:13.615Z,60.60
2023-01-03T19:54:42.608Z,62.43
2023-01-03T19:57:23.141Z,60.40
2023-01-03T19:59:54.478Z,60.33
2023-01-03T20:02:36.973Z,71.83
2023-01-03T20:05:14.895Z,78.97
2023-01-03T20:07:43.759Z,69.60
2023-01-03T20:10:17.053Z,70.30
2023-01-03T20:12:48.146Z,69.53
2023-01-03T20:15:23.437Z,61.97
2023-01-03T20:17:52.927Z,66.57
2023-01-03T20:20:22.153Z,65.97
2023-01-03T20:23:07.821Z,66.53
2023-01-03T20:25:38.117Z,59.80
2023-01-03T20:28:08.350Z,71.30
2023-01-03T20:30:38.913Z,66.73
2023-01-03T20:33:08.669Z,70.20
2023-01-03T20:38:27.507Z,65.00
2023-01-03T20:40:56.944Z,65.20
2023-01-03T20:43:26.947Z,57.57
2023-01-03T20:45:58.788Z,60.70
2023-01-03T20:48:29.377Z,55.97
2023-01-03T20:50:58.226Z,55.13
2023-01-03T20:53:28.182Z,62.00
2023-01-03T20:55:57.967Z,62.27
2023-01-03T20:58:28.157Z,69.57
2023-01-03T21:01:04.026Z,72.13
2023-01-03T21:03:34.803Z,64.37
2023-01-03T21:06:03.727Z,71.47
2023-01-03T21:08:49.709Z,65.33
2023-01-03T21:11:18.788Z,81.77
2023-01-03T21:13:49.022Z,72.40
2023-01-03T21:16:27.399Z,65.70
2023-01-03T21:18:56.180Z,60.07
2023-01-03T21:21:25.428Z,65.60
2023-01-03T21:23:55.517Z,66.03
2023-01-03T21:26:24.147Z,64.07
2023-01-03T21:28:54.289Z,64.53
2023-01-03T21:31:34.495Z,59.63
2023-01-03T21:34:03.322Z,59.20
2023-01-03T21:36:34.002Z,59.03
2023-01-03T21:39:03.499Z,59.33
2023-01-03T21:41:33.996Z,63.70
2023-01-03T21:44:05.339Z,59.30
2023-01-03T21:46:35.261Z,54.23
2023-01-03T21:49:03.797Z,55.07
2023-01-03T21:51:38.822Z,50.33
2023-01-03T21:54:08.851Z,51.87
2023-01-03T21:56:45.674Z,48.17
2023-01-03T21:59:17.301Z,44.93
2023-01-03T22:02:04.331Z,46.17
2023-01-03T22:04:33.475Z,45.97
2023-01-03T22:07:02.452Z,40.03
2023-01-03T22:09:49.637Z,37.53
2023-01-03T22:12:19.092Z,35.20
2023-01-03T22:14:49.252Z,29.63
2023-01-03T22:17:18.099Z,29.40
2023-01-03T22:19:47.021Z,28.10
2023-01-03T22:22:15.709Z,27.53
2023-01-03T22:24:44.536Z,27.90
2023-01-03T22:27:13.228Z,28.77
2023-01-03T22:29:43.004Z,31.10
2023-01-03T22:32:13.099Z,39.63
2023-01-03T22:34:41.742Z,31.83
2023-01-03T22:37:10.359Z,29.33
2023-01-03T22:39:38.974Z,25.77
2023-01-03T22:42:07.648Z,25.13
2023-01-03T22:44:36.268Z,25.03
2023-01-03T22:47:05.545Z,26.43
2023-01-03T22:49:35.919Z,28.77
2023-01-03T22:52:04.848Z,36.83
2023-01-03T22:54:35.385Z,35.60
2023-01-03T22:57:04.608Z,36.40
2023-01-03T22:59:33.832Z,34.67
2023-01-03T23:02:05.204Z,31.17
2023-01-03T23:04:35.697Z,35.63
2023-01-03T23:07:04.302Z,33.90
2023-01-03T23:09:32.887Z,31.43
2023-01-03T23:12:18.679Z,29.63
2023-01-03T23:14:47.323Z,28.70
2023-01-03T23:17:33.338Z,24.33
2023-01-03T23:20:03.577Z,26.17
2023-01-03T23:22:32.709Z,25.07
2023-01-03T23:25:01.228Z,34.63
2023-01-03T23:27:29.843Z,33.23
2023-01-03T23:29:58.427Z,33.10
2023-01-03T23:32:27.038Z,42.03
2023-01-03T23:34:55.535Z,40.97
2023-01-03T23:37:25.528Z,38.53
2023-01-03T23:39:54.066Z,34.53
2023-01-03T23:42:22.557Z,28.17
2023-01-03T23:44:51.170Z,26.43
2023-01-03T23:47:19.826Z,30.07
2023-01-03T23:49:48.449Z,33.03
2023-01-03T23:52:16.954Z,30.57
2023-01-03T23:54:46.986Z,31.70
2023-01-03T23:57:15.700Z,27.77
2023-01-03T23:59:44.209Z,28.23
